createdAt,value
2022-10-06T00:01:17.923Z,10.60
2022-10-06T00:03:46.289Z,10.70
2022-10-06T00:06:17.254Z,10.80
2022-10-06T00:08:46.716Z,10.80
2022-10-06T00:11:17.147Z,10.70
2022-10-06T00:13:44.915Z,10.50
2022-10-06T00:16:24.355Z,10.40
2022-10-06T00:18:51.327Z,10.30
2022-10-06T00:21:18.247Z,10.20
2022-10-06T00:23:45.235Z,10.00
2022-10-06T00:26:16.908Z,10.00
2022-10-06T00:28:47.881Z,10.00
2022-10-06T00:31:16.849Z,10.00
2022-10-06T00:33:43.965Z,9.90
2022-10-06T00:36:11.374Z,10.00
2022-10-06T00:38:38.833Z,10.00
2022-10-06T00:41:05.947Z,10.10
2022-10-06T00:43:51.347Z,10.10
2022-10-06T00:46:24.102Z,9.90
2022-10-06T00:49:21.625Z,10.00
2022-10-06T00:51:59.803Z,10.00
2022-10-06T00:54:28.573Z,10.20
2022-10-06T00:56:55.861Z,10.30
2022-10-06T00:59:22.831Z,10.20
2022-10-06T01:02:33.738Z,10.20
2022-10-06T01:05:05.586Z,10.20
2022-10-06T01:07:33.062Z,10.30
2022-10-06T01:09:59.987Z,10.40
2022-10-06T01:12:30.791Z,10.40
2022-10-06T01:14:57.827Z,10.20
2022-10-06T01:17:44.556Z,10.30
2022-10-06T01:20:18.195Z,10.20
2022-10-06T01:22:57.959Z,10.10
2022-10-06T01:25:26.544Z,10.10
2022-10-06T01:27:55.714Z,10.10
2022-10-06T01:30:36.402Z,10.00
2022-10-06T01:33:03.732Z,10.00
2022-10-06T01:35:30.701Z,10.00
2022-10-06T01:38:00.552Z,10.00
2022-10-06T01:40:29.043Z,10.10
2022-10-06T01:42:56.943Z,10.20
2022-10-06T01:45:23.959Z,10.20
2022-10-06T01:47:50.953Z,10.10
2022-10-06T01:50:17.914Z,10.10
2022-10-06T01:52:44.820Z,10.10
2022-10-06T01:55:11.788Z,10.10
2022-10-06T01:57:42.069Z,10.20
2022-10-06T02:00:11.371Z,10.30
2022-10-06T02:02:38.257Z,10.30
2022-10-06T02:05:06.024Z,10.30
2022-10-06T02:07:35.638Z,10.30
2022-10-06T02:10:04.779Z,10.40
2022-10-06T02:12:32.357Z,10.60
2022-10-06T02:14:59.664Z,10.70
2022-10-06T02:17:27.682Z,10.70
2022-10-06T02:19:54.769Z,10.70
2022-10-06T02:22:21.705Z,10.70
2022-10-06T02:24:48.715Z,10.70
2022-10-06T02:27:15.589Z,10.70
2022-10-06T02:29:42.534Z,10.70
2022-10-06T02:32:09.850Z,10.70
2022-10-06T02:34:36.709Z,10.60
2022-10-06T02:37:03.541Z,10.70
2022-10-06T02:39:30.486Z,10.80
2022-10-06T02:41:57.402Z,10.80
2022-10-06T02:44:25.118Z,10.90
2022-10-06T02:46:53.061Z,10.80
2022-10-06T02:49:20.066Z,10.70
2022-10-06T02:51:47.250Z,10.50
2022-10-06T02:54:14.758Z,10.50
2022-10-06T02:56:41.575Z,10.50
2022-10-06T02:59:08.563Z,10.50
2022-10-06T03:01:35.571Z,10.60
2022-10-06T03:04:02.543Z,10.70
2022-10-06T03:06:31.167Z,10.80
2022-10-06T03:09:00.290Z,10.80
2022-10-06T03:11:40.995Z,10.80
2022-10-06T03:14:08.604Z,10.80
2022-10-06T03:16:40.838Z,10.90
2022-10-06T03:19:10.343Z,10.90
2022-10-06T03:21:42.930Z,10.80
2022-10-06T03:24:11.382Z,10.80
2022-10-06T03:26:46.094Z,10.70
2022-10-06T03:29:13.459Z,10.50
2022-10-06T03:31:40.638Z,10.40
2022-10-06T03:34:07.734Z,10.30
2022-10-06T03:36:36.295Z,10.20
2022-10-06T03:39:06.193Z,10.30
2022-10-06T03:41:37.952Z,10.40
2022-10-06T03:44:05.399Z,10.30
2022-10-06T03:46:36.221Z,10.30
2022-10-06T03:49:04.193Z,10.20
2022-10-06T03:51:39.499Z,10.20
2022-10-06T03:54:10.783Z,10.10
2022-10-06T03:56:41.575Z,10.10
2022-10-06T03:59:16.299Z,10.00
2022-10-06T04:01:47.435Z,10.00
2022-10-06T04:04:14.888Z,9.90
2022-10-06T04:06:44.549Z,9.90
2022-10-06T04:09:15.965Z,10.00
2022-10-06T04:11:45.091Z,10.00
2022-10-06T04:14:16.184Z,10.10
2022-10-06T04:16:50.943Z,10.30
2022-10-06T04:19:18.848Z,10.50
2022-10-06T04:21:47.572Z,10.60
2022-10-06T04:24:18.148Z,10.60
2022-10-06T04:26:48.761Z,10.60
2022-10-06T04:29:16.296Z,10.70
2022-10-06T04:31:43.586Z,10.80
2022-10-06T04:34:13.237Z,10.90
2022-10-06T04:36:43.285Z,10.90
2022-10-06T04:39:12.396Z,11.00
2022-10-06T04:41:42.352Z,11.00
2022-10-06T04:44:10.180Z,11.10
2022-10-06T04:46:43.421Z,11.10
2022-10-06T04:49:18.554Z,11.20
2022-10-06T04:51:49.183Z,11.20
2022-10-06T04:54:16.460Z,11.20
2022-10-06T04:56:43.349Z,11.20
2022-10-06T04:59:10.255Z,11.20
2022-10-06T05:01:38.016Z,11.20
2022-10-06T05:04:06.268Z,11.20
2022-10-06T05:06:41.122Z,11.30
2022-10-06T05:09:15.667Z,11.30
2022-10-06T05:11:42.723Z,11.40
2022-10-06T05:14:10.255Z,11.40
2022-10-06T05:16:38.172Z,11.50
2022-10-06T05:19:05.679Z,11.60
2022-10-06T05:21:33.573Z,11.70
2022-10-06T05:24:01.157Z,11.70
2022-10-06T05:26:34.309Z,11.80
2022-10-06T05:29:01.797Z,11.80
2022-10-06T05:31:32.732Z,11.80
2022-10-06T05:34:00.457Z,11.80
2022-10-06T05:36:32.177Z,11.90
2022-10-06T05:38:59.785Z,11.90
2022-10-06T05:41:33.767Z,11.90
2022-10-06T05:44:01.071Z,12.00
2022-10-06T05:46:32.967Z,12.10
2022-10-06T05:49:11.258Z,12.10
2022-10-06T05:51:40.350Z,12.20
2022-10-06T05:54:07.328Z,12.30
2022-10-06T05:56:39.018Z,12.30
2022-10-06T05:59:07.092Z,12.40
2022-10-06T06:01:41.321Z,12.50
2022-10-06T06:04:12.857Z,12.60
2022-10-06T06:06:47.042Z,12.70
2022-10-06T06:09:18.840Z,12.70
2022-10-06T06:11:49.750Z,12.70
2022-10-06T06:14:40.896Z,12.80
2022-10-06T06:17:08.159Z,12.90
2022-10-06T06:19:35.091Z,12.90
2022-10-06T06:22:02.036Z,13.00
2022-10-06T06:24:28.958Z,13.00
2022-10-06T06:26:55.979Z,13.10
2022-10-06T06:29:23.970Z,13.20
2022-10-06T06:31:50.978Z,13.20
2022-10-06T06:34:17.923Z,13.30
2022-10-06T06:36:47.327Z,13.40
2022-10-06T06:39:15.926Z,13.60
2022-10-06T06:41:46.047Z,13.70
2022-10-06T06:44:13.763Z,13.80
2022-10-06T06:46:44.767Z,13.90
2022-10-06T06:49:12.142Z,14.10
2022-10-06T06:51:44.799Z,14.20
2022-10-06T06:54:12.784Z,14.40
2022-10-06T06:56:40.112Z,14.50
2022-10-06T06:59:11.720Z,14.70
2022-10-06T07:01:45.688Z,14.80
2022-10-06T07:04:16.669Z,14.90
2022-10-06T07:06:58.445Z,15.20
2022-10-06T07:09:26.659Z,15.40
2022-10-06T07:11:54.961Z,15.90
2022-10-06T07:14:23.997Z,16.50
2022-10-06T07:17:09.627Z,16.60
2022-10-06T07:19:56.799Z,16.40
2022-10-06T07:22:46.939Z,16.20
2022-10-06T07:25:26.744Z,16.20
2022-10-06T07:27:54.703Z,16.20
2022-10-06T07:30:28.872Z,16.20
2022-10-06T07:32:55.979Z,16.50
2022-10-06T07:35:25.424Z,16.50
2022-10-06T07:37:53.270Z,16.50
2022-10-06T07:40:20.575Z,16.50
2022-10-06T07:42:53.365Z,16.50
2022-10-06T07:45:44.803Z,16.70
2022-10-06T07:48:20.041Z,17.00
2022-10-06T07:50:52.279Z,17.10
2022-10-06T07:53:19.755Z,16.90
2022-10-06T07:55:49.088Z,16.80
2022-10-06T07:58:24.034Z,16.70
2022-10-06T08:03:41.900Z,16.20
2022-10-06T08:06:15.617Z,16.30
2022-10-06T08:08:50.253Z,16.60
2022-10-06T08:11:21.457Z,16.70
2022-10-06T08:13:48.857Z,16.60
2022-10-06T08:16:21.834Z,16.30
2022-10-06T08:18:54.838Z,15.90
2022-10-06T08:21:28.112Z,15.60
2022-10-06T08:23:58.044Z,15.40
2022-10-06T08:26:28.598Z,15.30
2022-10-06T08:29:02.909Z,15.00
2022-10-06T08:31:31.839Z,14.80
2022-10-06T08:33:58.951Z,14.80
2022-10-06T08:36:31.464Z,14.90
2022-10-06T08:39:01.094Z,14.90
2022-10-06T08:41:50.689Z,15.20
2022-10-06T08:44:42.793Z,15.30
2022-10-06T08:47:19.765Z,15.30
2022-10-06T08:49:53.962Z,15.30
2022-10-06T08:52:51.577Z,15.10
2022-10-06T08:56:32.469Z,15.00
2022-10-06T08:59:04.636Z,15.00
2022-10-06T09:01:52.069Z,14.60
2022-10-06T09:04:32.042Z,14.60
2022-10-06T09:07:25.302Z,14.30
2022-10-06T09:10:36.778Z,14.00
2022-10-06T09:13:22.326Z,14.00
2022-10-06T09:16:16.820Z,13.90
2022-10-06T09:19:13.949Z,13.80
2022-10-06T09:21:51.633Z,13.50
2022-10-06T09:24:49.323Z,13.40
2022-10-06T09:27:34.171Z,13.30
2022-10-06T09:30:06.080Z,13.20
2022-10-06T09:32:34.980Z,13.20
2022-10-06T09:35:17.064Z,13.20
2022-10-06T09:38:08.365Z,13.20
2022-10-06T09:40:51.359Z,13.30
2022-10-06T09:43:29.879Z,13.60
2022-10-06T09:46:41.562Z,13.90
2022-10-06T09:49:27.400Z,14.00
2022-10-06T09:52:16.077Z,14.30
2022-10-06T09:54:45.150Z,14.60
2022-10-06T09:57:26.950Z,15.00
2022-10-06T09:59:54.237Z,15.40
2022-10-06T10:02:36.875Z,16.10
2022-10-06T10:05:27.932Z,16.70
2022-10-06T10:08:13.370Z,17.20
2022-10-06T10:10:41.367Z,18.20
2022-10-06T10:13:26.428Z,18.80
2022-10-06T10:16:02.804Z,19.60
2022-10-06T10:18:31.998Z,19.50
2022-10-06T10:21:08.375Z,20.60
2022-10-06T10:23:55.247Z,22.30
2022-10-06T10:27:00.300Z,24.10
2022-10-06T10:30:10.043Z,24.60
2022-10-06T10:33:31.541Z,24.60
2022-10-06T10:36:04.684Z,22.90
2022-10-06T10:38:40.923Z,23.10
2022-10-06T10:41:31.290Z,23.20
2022-10-06T10:44:34.800Z,22.50
2022-10-06T10:47:22.091Z,22.80
2022-10-06T10:50:07.976Z,21.70
2022-10-06T10:52:44.440Z,20.90
2022-10-06T10:55:36.068Z,20.20
2022-10-06T10:58:27.828Z,20.60
2022-10-06T11:01:34.457Z,20.90
2022-10-06T11:04:02.327Z,20.70
2022-10-06T11:07:53.410Z,19.80
2022-10-06T11:10:38.196Z,20.70
2022-10-06T11:13:44.445Z,21.80
2022-10-06T11:17:00.864Z,21.40
2022-10-06T11:20:01.549Z,20.60
2022-10-06T11:22:47.017Z,20.50
2022-10-06T11:25:37.265Z,20.60
2022-10-06T11:28:25.449Z,21.30
2022-10-06T11:31:23.527Z,21.20
2022-10-06T11:33:55.693Z,21.60
2022-10-06T11:36:54.418Z,23.10
2022-10-06T11:39:56.962Z,24.70
2022-10-06T11:42:43.780Z,26.90
2022-10-06T11:45:22.397Z,27.60
2022-10-06T11:48:26.594Z,29.20
2022-10-06T11:50:55.977Z,30.30
2022-10-06T11:53:35.150Z,28.90
2022-10-06T11:56:17.166Z,26.80
2022-10-06T11:58:56.126Z,25.00
2022-10-06T12:01:36.183Z,22.10
2022-10-06T12:04:08.997Z,20.60
2022-10-06T12:06:45.526Z,20.50
2022-10-06T12:09:45.310Z,20.10
2022-10-06T12:12:15.190Z,20.60
2022-10-06T12:18:04.903Z,21.30
2022-10-06T12:21:18.385Z,26.00
2022-10-06T12:23:52.722Z,29.60
2022-10-06T12:26:52.718Z,32.60
2022-10-06T12:29:46.147Z,32.90
2022-10-06T12:32:46.351Z,31.60
2022-10-06T12:35:39.827Z,28.50
2022-10-06T12:38:42.978Z,26.10
2022-10-06T12:41:13.267Z,24.60
2022-10-06T12:43:55.742Z,22.60
2022-10-06T12:46:45.137Z,21.50
2022-10-06T12:49:36.878Z,21.50
2022-10-06T12:52:22.753Z,23.30
2022-10-06T12:55:17.494Z,26.50
2022-10-06T12:57:54.035Z,29.20
2022-10-06T13:00:43.323Z,30.70
2022-10-06T13:03:28.614Z,31.40
2022-10-06T13:06:05.698Z,31.50
2022-10-06T13:08:39.011Z,30.80
2022-10-06T13:11:28.145Z,29.30
2022-10-06T13:13:59.105Z,25.60
2022-10-06T13:16:32.830Z,24.40
2022-10-06T13:19:03.682Z,23.20
2022-10-06T13:21:30.887Z,23.80
2022-10-06T13:23:57.821Z,22.40
2022-10-06T13:26:32.564Z,22.30
2022-10-06T13:29:00.980Z,21.00
2022-10-06T13:31:35.045Z,21.40
2022-10-06T13:34:05.028Z,22.50
2022-10-06T13:36:38.597Z,21.60
2022-10-06T13:39:14.248Z,23.50
2022-10-06T13:42:13.595Z,25.90
2022-10-06T13:44:55.712Z,27.20
2022-10-06T13:47:29.591Z,28.60
2022-10-06T13:50:18.786Z,29.30
2022-10-06T13:52:48.424Z,30.50
2022-10-06T13:55:23.895Z,31.30
2022-10-06T13:58:18.775Z,31.50
2022-10-06T14:01:00.911Z,31.80
2022-10-06T14:06:21.127Z,31.90
2022-10-06T14:08:58.466Z,31.40
2022-10-06T14:11:29.776Z,30.40
2022-10-06T14:14:05.750Z,30.20
2022-10-06T14:16:33.176Z,29.40
2022-10-06T14:19:06.099Z,29.20
2022-10-06T14:21:33.937Z,28.20
2022-10-06T14:24:16.907Z,28.40
2022-10-06T14:26:49.577Z,29.20
2022-10-06T14:29:19.633Z,29.60
2022-10-06T14:31:48.954Z,29.10
2022-10-06T14:34:21.798Z,28.00
2022-10-06T14:36:51.603Z,27.40
2022-10-06T14:39:19.646Z,27.50
2022-10-06T14:41:46.989Z,27.70
2022-10-06T14:44:15.709Z,27.90
2022-10-06T14:46:48.044Z,27.10
2022-10-06T14:49:15.981Z,25.70
2022-10-06T14:51:44.821Z,24.00
2022-10-06T14:54:13.260Z,22.90
2022-10-06T14:56:41.987Z,21.60
2022-10-06T14:59:16.676Z,21.90
2022-10-06T15:01:44.185Z,23.20
2022-10-06T15:04:19.445Z,24.60
2022-10-06T15:07:06.117Z,25.10
2022-10-06T15:09:33.124Z,24.90
2022-10-06T15:12:00.738Z,24.50
2022-10-06T15:14:29.530Z,24.20
2022-10-06T15:17:00.808Z,24.50
2022-10-06T15:19:28.357Z,24.90
2022-10-06T15:21:56.066Z,25.70
2022-10-06T15:24:23.074Z,26.00
2022-10-06T15:27:08.557Z,25.90
2022-10-06T15:29:35.703Z,25.50
2022-10-06T15:32:05.946Z,24.90
2022-10-06T15:34:34.468Z,25.00
2022-10-06T15:37:02.498Z,25.30
2022-10-06T15:39:35.768Z,24.50
2022-10-06T15:42:03.054Z,23.90
2022-10-06T15:44:34.612Z,23.80
2022-10-06T15:47:05.925Z,23.50
2022-10-06T15:49:38.207Z,23.20
2022-10-06T15:52:06.971Z,22.70
2022-10-06T15:54:43.584Z,21.90
2022-10-06T15:57:17.832Z,21.50
2022-10-06T15:59:46.510Z,21.40
2022-10-06T16:02:16.907Z,21.30
2022-10-06T16:05:03.858Z,20.60
2022-10-06T16:07:32.518Z,19.50
2022-10-06T16:09:59.742Z,18.80
2022-10-06T16:12:28.501Z,18.20
2022-10-06T16:14:55.398Z,17.50
2022-10-06T16:17:22.540Z,17.00
2022-10-06T16:19:49.450Z,16.40
2022-10-06T16:22:19.122Z,16.00
2022-10-06T16:24:46.070Z,15.50
2022-10-06T16:27:15.828Z,15.00
2022-10-06T16:29:43.157Z,14.70
2022-10-06T16:32:10.734Z,14.40
2022-10-06T16:34:37.784Z,14.20
2022-10-06T16:37:04.643Z,13.90
2022-10-06T16:39:31.608Z,13.70
2022-10-06T16:41:58.615Z,13.50
2022-10-06T16:44:25.833Z,13.30
2022-10-06T16:46:52.783Z,13.10
2022-10-06T16:49:20.715Z,12.90
2022-10-06T16:51:47.603Z,12.70
2022-10-06T16:54:20.731Z,12.60
2022-10-06T16:56:54.880Z,12.40
2022-10-06T16:59:26.330Z,12.20
2022-10-06T17:01:53.548Z,12.00
2022-10-06T17:04:24.365Z,11.90
2022-10-06T17:06:56.970Z,11.70
2022-10-06T17:09:28.767Z,11.50
2022-10-06T17:12:04.451Z,11.30
2022-10-06T17:14:34.468Z,11.30
2022-10-06T17:17:01.438Z,11.30
2022-10-06T17:19:30.116Z,11.10
2022-10-06T17:21:59.303Z,10.90
2022-10-06T17:24:28.957Z,10.70
2022-10-06T17:26:57.564Z,10.50
2022-10-06T17:29:25.840Z,10.40
2022-10-06T17:31:58.553Z,10.30
2022-10-06T17:34:31.805Z,10.20
2022-10-06T17:37:02.629Z,10.20
2022-10-06T17:39:30.043Z,10.20
2022-10-06T17:41:57.114Z,10.20
2022-10-06T17:44:29.081Z,10.20
2022-10-06T17:47:00.252Z,10.00
2022-10-06T17:49:30.384Z,9.90
2022-10-06T17:51:57.526Z,9.90
2022-10-06T17:54:27.294Z,9.90
2022-10-06T17:56:58.083Z,9.90
2022-10-06T17:59:30.434Z,9.80
2022-10-06T18:02:02.591Z,9.80
2022-10-06T18:04:30.356Z,9.70
2022-10-06T18:06:57.680Z,9.70
2022-10-06T18:09:24.925Z,9.70
2022-10-06T18:11:56.402Z,9.70
2022-10-06T18:14:33.229Z,9.50
2022-10-06T18:17:02.429Z,9.50
2022-10-06T18:19:34.080Z,9.50
2022-10-06T18:22:12.713Z,9.50
2022-10-06T18:24:40.452Z,9.40
2022-10-06T18:27:08.662Z,9.30
2022-10-06T18:29:38.641Z,9.20
2022-10-06T18:37:42.053Z,8.90
2022-10-06T18:40:10.997Z,8.80
2022-10-06T18:42:39.362Z,8.70
2022-10-06T18:45:27.502Z,8.80
2022-10-06T18:48:26.885Z,8.70
2022-10-06T18:51:03.515Z,8.70
2022-10-06T18:53:33.273Z,8.80
2022-10-06T18:56:00.157Z,8.80
2022-10-06T18:58:27.094Z,8.80
2022-10-06T19:00:54.762Z,8.70
2022-10-06T19:03:21.768Z,8.50
2022-10-06T19:05:56.282Z,8.50
2022-10-06T19:08:23.191Z,8.50
2022-10-06T19:11:08.958Z,8.50
2022-10-06T19:13:37.267Z,8.50
2022-10-06T19:16:05.412Z,8.50
2022-10-06T19:18:37.890Z,8.50
2022-10-06T19:21:09.341Z,8.50
2022-10-06T19:23:38.963Z,8.60
2022-10-06T19:26:10.969Z,8.60
2022-10-06T19:28:39.384Z,8.50
2022-10-06T19:31:19.824Z,8.40
2022-10-06T19:33:48.751Z,8.30
2022-10-06T19:36:16.950Z,8.20
2022-10-06T19:38:45.395Z,8.20
2022-10-06T19:41:31.571Z,8.30
2022-10-06T19:43:58.427Z,8.30
2022-10-06T19:46:25.397Z,8.20
2022-10-06T19:48:55.276Z,8.10
2022-10-06T19:51:23.924Z,8.10
2022-10-06T19:53:51.543Z,8.20
2022-10-06T19:56:24.823Z,8.20
2022-10-06T19:58:52.543Z,8.10
2022-10-06T20:01:20.258Z,8.10
2022-10-06T20:03:47.352Z,8.10
2022-10-06T20:06:15.099Z,8.00
2022-10-06T20:08:43.970Z,8.00
2022-10-06T20:11:21.741Z,7.90
2022-10-06T20:13:50.403Z,7.80
2022-10-06T20:16:20.359Z,7.80
2022-10-06T20:18:50.388Z,7.80
2022-10-06T20:21:25.408Z,7.80
2022-10-06T20:23:57.891Z,7.80
2022-10-06T20:26:31.991Z,7.80
2022-10-06T20:29:04.966Z,7.80
2022-10-06T20:31:39.872Z,7.90
2022-10-06T20:34:12.769Z,7.90
2022-10-06T20:36:39.854Z,7.90
2022-10-06T20:39:31.895Z,7.80
2022-10-06T20:41:58.880Z,7.70
2022-10-06T20:44:26.072Z,7.60
2022-10-06T20:46:54.343Z,7.60
2022-10-06T20:49:21.804Z,7.50
2022-10-06T20:51:51.681Z,7.50
2022-10-06T20:54:22.233Z,7.50
2022-10-06T20:56:53.104Z,7.50
2022-10-06T20:59:23.549Z,7.50
2022-10-06T21:01:51.572Z,7.50
2022-10-06T21:04:20.608Z,7.40
2022-10-06T21:06:48.512Z,7.40
2022-10-06T21:09:19.337Z,7.40
2022-10-06T21:11:47.808Z,7.40
2022-10-06T21:14:15.963Z,7.40
2022-10-06T21:16:47.415Z,7.40
2022-10-06T21:19:18.488Z,7.40
2022-10-06T21:21:53.144Z,7.40
2022-10-06T21:24:21.010Z,7.40
2022-10-06T21:26:50.262Z,7.40
2022-10-06T21:29:17.281Z,7.30
2022-10-06T21:31:46.023Z,7.30
2022-10-06T21:34:16.657Z,7.20
2022-10-06T21:36:44.409Z,7.10
2022-10-06T21:39:12.824Z,7.10
2022-10-06T21:41:42.103Z,7.10
2022-10-06T21:44:17.149Z,7.10
2022-10-06T21:46:52.920Z,7.00
2022-10-06T21:49:23.780Z,7.00
2022-10-06T21:51:54.872Z,7.00
2022-10-06T21:54:24.041Z,7.00
2022-10-06T21:56:51.536Z,7.00
2022-10-06T21:59:18.830Z,6.90
2022-10-06T22:01:49.538Z,6.90
2022-10-06T22:04:17.772Z,6.90
2022-10-06T22:06:49.815Z,6.90
2022-10-06T22:09:20.258Z,7.00
2022-10-06T22:11:47.331Z,7.00
2022-10-06T22:14:18.445Z,7.00
2022-10-06T22:16:46.291Z,7.10
2022-10-06T22:19:16.269Z,7.00
2022-10-06T22:21:47.887Z,6.90
2022-10-06T22:24:21.117Z,6.80
2022-10-06T22:26:49.461Z,6.90
2022-10-06T22:29:19.434Z,6.90
2022-10-06T22:31:48.061Z,6.90
2022-10-06T22:34:19.677Z,6.80
2022-10-06T22:36:46.745Z,6.70
2022-10-06T22:39:13.625Z,6.60
2022-10-06T22:41:40.537Z,6.50
2022-10-06T22:44:07.444Z,6.50
2022-10-06T22:46:36.792Z,6.50
2022-10-06T22:49:05.378Z,6.40
2022-10-06T22:51:33.507Z,6.40
2022-10-06T22:54:01.193Z,6.40
2022-10-06T22:56:32.325Z,6.50
2022-10-06T22:59:00.788Z,6.50
2022-10-06T23:01:30.178Z,6.50
2022-10-06T23:03:57.863Z,6.50
2022-10-06T23:06:26.585Z,6.50
2022-10-06T23:08:53.540Z,6.40
2022-10-06T23:11:22.517Z,6.50
2022-10-06T23:13:50.310Z,6.50
2022-10-06T23:16:19.806Z,6.60
2022-10-06T23:18:48.272Z,6.60
2022-10-06T23:21:27.148Z,6.50
2022-10-06T23:23:59.521Z,6.50
2022-10-06T23:26:27.655Z,6.50
2022-10-06T23:29:00.921Z,6.40
2022-10-06T23:31:29.735Z,6.40
2022-10-06T23:33:57.341Z,6.40
2022-10-06T23:36:24.567Z,6.40
2022-10-06T23:38:51.485Z,6.40
2022-10-06T23:41:19.676Z,6.30
2022-10-06T23:43:46.837Z,6.30
2022-10-06T23:46:14.254Z,6.30
2022-10-06T23:48:41.406Z,6.40
2022-10-06T23:51:13.658Z,6.40
2022-10-06T23:53:42.802Z,6.30
2022-10-06T23:56:11.094Z,6.30
2022-10-06T23:58:38.382Z,6.20
